Flight Briefing for CPX244

Departure Arrival
Norman Manley International Airport (MKJP)
Click to view FAA NOTAMS
Miami International Airport (KMIA)
Click to view FAA NOTAMS
Departure Time Arrival Time
N/A N/A
Aircraft Distance
B767-300BDSF 518nm
Departure METAR Arrival METAR
MKJP 192200Z 12018KT 9999 FEW022 29/18 Q1015 KMIA 192153Z 11013KT 10SM BKN030 27/20 A3013 RMK AO2 SLP201 T02670200
Suggested Route
UCA UA301 URSUS FLIPR6


View recent IFR Routes data
Notes



Charts and Procedures

Charts for MKJP
No chart available
Charts for KMIA
No chart available

Ventusky Weather




{"cat":null,"equip":null,"transponder":null,"pbn":"PBN\/","maxpax":null,"oew":"0.0","mzfw":"0.0","mtow":"0.0","mlw":"0.0","maxfuel":"0.0"} DEVELOPMENTAL TEST USE ONLY